createdAt,value
2019-02-21T00:00:29.848Z,97.60
2019-02-21T00:03:00.346Z,97.60
2019-02-21T00:05:30.801Z,97.70
2019-02-21T00:08:01.296Z,97.70
2019-02-21T00:10:31.811Z,97.70
2019-02-21T00:13:03.836Z,97.80
2019-02-21T00:15:34.403Z,97.80
2019-02-21T00:18:04.955Z,98.10
2019-02-21T00:20:35.412Z,98.00
2019-02-21T00:23:05.997Z,98.10
2019-02-21T00:25:38.033Z,97.90
2019-02-21T00:28:09.261Z,97.90
2019-02-21T00:30:39.747Z,98.00
2019-02-21T00:33:10.235Z,98.20
2019-02-21T00:35:41.738Z,98.40
2019-02-21T00:38:12.297Z,98.50
2019-02-21T00:40:42.781Z,98.50
2019-02-21T00:43:13.257Z,98.50
2019-02-21T00:45:45.415Z,98.50
2019-02-21T00:48:15.943Z,98.50
2019-02-21T00:50:46.411Z,98.40
2019-02-21T00:53:16.904Z,98.50
2019-02-21T00:55:48.529Z,98.70
2019-02-21T00:58:19.036Z,98.80
2019-02-21T01:00:49.519Z,98.90
2019-02-21T01:03:20.006Z,98.70
2019-02-21T01:05:50.567Z,98.60
2019-02-21T01:08:21.099Z,98.50
2019-02-21T01:10:51.651Z,98.50
2019-02-21T01:13:22.158Z,98.50
2019-02-21T01:15:52.611Z,98.50
2019-02-21T01:18:23.095Z,98.60
2019-02-21T01:20:53.578Z,98.70
2019-02-21T01:23:24.096Z,98.80
2019-02-21T01:25:54.555Z,98.90
2019-02-21T01:28:25.040Z,98.80
2019-02-21T01:30:57.195Z,98.80
2019-02-21T01:33:27.856Z,98.80
2019-02-21T01:35:58.394Z,98.80
2019-02-21T01:38:28.895Z,98.70
2019-02-21T01:40:59.351Z,98.70
2019-02-21T01:43:29.836Z,98.70
2019-02-21T01:46:00.338Z,98.70
2019-02-21T01:48:32.240Z,98.30
2019-02-21T01:51:04.367Z,98.80
2019-02-21T01:53:34.851Z,98.90
2019-02-21T01:56:05.329Z,99.10
2019-02-21T01:58:37.459Z,99.20
2019-02-21T02:01:09.043Z,99.20
2019-02-21T02:03:39.832Z,99.20
2019-02-21T02:06:10.352Z,99.30
2019-02-21T02:08:40.816Z,99.30
2019-02-21T02:11:11.326Z,99.40
2019-02-21T02:13:41.787Z,99.30
2019-02-21T02:16:12.261Z,99.30
2019-02-21T02:18:42.712Z,99.30
2019-02-21T02:21:13.934Z,99.30
2019-02-21T02:23:44.430Z,99.30
2019-02-21T02:26:14.893Z,99.30
2019-02-21T02:29:06.241Z,99.40
2019-02-21T02:31:36.786Z,99.30
2019-02-21T02:34:08.448Z,99.30
2019-02-21T02:36:38.982Z,99.40
2019-02-21T02:39:09.547Z,99.50
2019-02-21T02:41:40.008Z,99.50
2019-02-21T02:44:10.527Z,99.70
2019-02-21T02:46:40.984Z,99.60
2019-02-21T02:49:11.510Z,99.60
2019-02-21T02:51:42.038Z,99.70
2019-02-21T02:54:12.546Z,99.80
2019-02-21T02:56:43.046Z,99.70
2019-02-21T02:59:13.502Z,99.50
2019-02-21T03:01:43.993Z,99.30
2019-02-21T03:04:14.543Z,99.40
2019-02-21T03:06:45.581Z,99.50
2019-02-21T03:09:16.043Z,99.30
2019-02-21T03:11:46.627Z,99.20
2019-02-21T03:14:17.074Z,99.20
2019-02-21T03:16:47.565Z,99.30
2019-02-21T03:19:18.020Z,99.30
2019-02-21T03:21:48.594Z,99.30
2019-02-21T03:24:19.071Z,99.30
2019-02-21T03:26:49.567Z,99.20
2019-02-21T03:29:20.053Z,99.40
2019-02-21T03:31:55.301Z,99.70
2019-02-21T03:34:24.607Z,99.90
2019-02-21T03:36:55.872Z,99.90
2019-02-21T03:39:27.723Z,99.90
2019-02-21T03:42:00.199Z,99.90
2019-02-21T03:44:32.166Z,99.90
2019-02-21T03:47:02.660Z,99.90
2019-02-21T03:49:33.121Z,99.80
2019-02-21T03:52:05.110Z,99.80
2019-02-21T03:54:36.320Z,99.90
2019-02-21T03:57:08.278Z,99.90
2019-02-21T03:59:38.831Z,99.90
2019-02-21T04:02:09.384Z,99.70
2019-02-21T04:04:39.901Z,99.80
2019-02-21T04:07:10.527Z,99.80
2019-02-21T04:09:41.021Z,99.60
2019-02-21T04:12:11.479Z,99.80
2019-02-21T04:14:42.041Z,99.80
2019-02-21T04:17:12.504Z,99.70
2019-02-21T04:19:43.003Z,99.60
2019-02-21T04:22:15.020Z,99.60
2019-02-21T04:24:45.478Z,99.50
2019-02-21T04:27:15.980Z,99.40
2019-02-21T04:29:46.449Z,99.40
2019-02-21T04:32:17.315Z,99.30
2019-02-21T04:34:47.889Z,99.20
2019-02-21T04:37:20.750Z,99.30
2019-02-21T04:39:51.230Z,99.40
2019-02-21T04:42:22.973Z,99.40
2019-02-21T04:44:54.353Z,99.40
2019-02-21T04:47:24.818Z,99.40
2019-02-21T04:49:55.302Z,99.50
2019-02-21T04:52:25.773Z,99.50
2019-02-21T04:54:56.271Z,99.40
2019-02-21T04:57:26.753Z,99.40
2019-02-21T04:59:58.796Z,99.40
2019-02-21T05:02:29.804Z,99.50
2019-02-21T05:05:00.438Z,99.40
2019-02-21T05:07:35.745Z,99.40
2019-02-21T05:10:07.810Z,99.50
2019-02-21T05:12:40.043Z,99.60
2019-02-21T05:15:14.032Z,99.60
2019-02-21T05:17:46.262Z,99.70
2019-02-21T05:20:16.721Z,99.80
2019-02-21T05:22:47.202Z,99.90
2019-02-21T05:25:19.197Z,99.90
2019-02-21T05:27:51.288Z,99.90
2019-02-21T05:30:23.426Z,99.90
2019-02-21T05:32:56.017Z,99.90
2019-02-21T05:35:31.077Z,99.90
2019-02-21T05:38:11.107Z,99.60
2019-02-21T05:40:59.536Z,99.50
2019-02-21T05:43:37.109Z,99.40
2019-02-21T05:46:10.058Z,99.00
2019-02-21T05:48:44.843Z,99.00
2019-02-21T05:51:16.987Z,99.10
2019-02-21T05:53:51.855Z,99.10
2019-02-21T05:56:22.619Z,99.30
2019-02-21T05:59:05.399Z,99.20
2019-02-21T06:01:56.317Z,99.70
2019-02-21T06:04:34.519Z,99.50
2019-02-21T06:07:22.441Z,99.60
2019-02-21T06:09:54.562Z,99.60
2019-02-21T06:12:33.573Z,99.50
2019-02-21T06:15:04.309Z,99.50
2019-02-21T06:17:45.438Z,99.60
2019-02-21T06:20:22.187Z,99.60
2019-02-21T06:22:57.406Z,99.50
2019-02-21T06:25:30.458Z,99.50
2019-02-21T06:28:05.507Z,99.40
2019-02-21T06:30:38.306Z,99.50
2019-02-21T06:33:08.872Z,99.30
2019-02-21T06:35:40.894Z,99.50
2019-02-21T06:38:11.356Z,99.60
2019-02-21T06:40:46.979Z,99.70
2019-02-21T06:43:16.899Z,99.80
2019-02-21T06:45:47.477Z,99.90
2019-02-21T06:48:17.939Z,99.90
2019-02-21T06:50:49.975Z,99.90
2019-02-21T06:53:20.434Z,99.80
2019-02-21T06:55:50.933Z,99.70
2019-02-21T06:58:21.392Z,99.60
2019-02-21T07:00:55.067Z,99.20
2019-02-21T07:03:25.585Z,99.30
2019-02-21T07:05:56.037Z,99.30
2019-02-21T07:08:26.524Z,99.40
2019-02-21T07:11:05.816Z,99.00
2019-02-21T07:13:30.246Z,98.80
2019-02-21T07:16:00.636Z,98.50
2019-02-21T07:18:31.139Z,98.40
2019-02-21T07:21:03.227Z,98.60
2019-02-21T07:23:43.144Z,98.40
2019-02-21T07:26:05.924Z,98.10
2019-02-21T07:28:36.384Z,97.50
2019-02-21T07:31:06.894Z,97.60
2019-02-21T07:33:37.357Z,97.20
2019-02-21T07:36:07.842Z,96.90
2019-02-21T07:38:38.355Z,96.30
2019-02-21T07:41:09.030Z,96.40
2019-02-21T07:43:39.679Z,95.90
2019-02-21T07:46:10.245Z,95.70
2019-02-21T07:48:41.846Z,95.30
2019-02-21T07:51:13.566Z,95.00
2019-02-21T07:53:44.190Z,95.00
2019-02-21T07:56:14.680Z,94.70
2019-02-21T07:58:45.174Z,95.00
2019-02-21T08:01:17.450Z,95.10
2019-02-21T08:03:48.663Z,94.90
2019-02-21T08:06:20.146Z,95.50
2019-02-21T08:08:50.819Z,95.40
2019-02-21T08:11:21.299Z,95.20
2019-02-21T08:13:51.781Z,94.70
2019-02-21T08:16:22.288Z,94.30
2019-02-21T08:18:52.779Z,94.30
2019-02-21T08:21:24.021Z,93.80
2019-02-21T08:23:54.499Z,93.20
2019-02-21T08:26:25.000Z,92.80
2019-02-21T08:28:55.529Z,92.80
2019-02-21T08:31:26.013Z,92.50
2019-02-21T08:33:58.979Z,92.80
2019-02-21T08:36:29.688Z,92.20
2019-02-21T08:39:00.148Z,92.00
2019-02-21T08:41:30.639Z,92.20
2019-02-21T08:44:01.104Z,92.50
2019-02-21T08:46:31.602Z,92.80
2019-02-21T08:49:02.083Z,91.90
2019-02-21T08:51:32.591Z,91.60
2019-02-21T08:54:05.538Z,91.00
2019-02-21T08:56:35.323Z,90.70
2019-02-21T08:59:05.818Z,89.70
2019-02-21T09:01:36.366Z,90.00
2019-02-21T09:04:10.519Z,89.50
2019-02-21T09:06:39.195Z,89.80
2019-02-21T09:09:10.229Z,89.40
2019-02-21T09:11:40.733Z,87.80
2019-02-21T09:14:11.237Z,88.10
2019-02-21T09:16:43.120Z,87.20
2019-02-21T09:19:15.268Z,87.30
2019-02-21T09:21:45.750Z,86.20
2019-02-21T09:24:35.242Z,86.10
2019-02-21T09:26:48.475Z,84.20
2019-02-21T09:29:18.954Z,83.70
2019-02-21T09:31:49.457Z,83.00
2019-02-21T09:34:21.429Z,82.10
2019-02-21T09:36:52.280Z,80.80
2019-02-21T09:39:22.738Z,80.80
2019-02-21T09:41:53.234Z,81.80
2019-02-21T09:44:27.255Z,80.70
2019-02-21T09:46:55.972Z,77.30
2019-02-21T09:49:26.439Z,76.70
2019-02-21T09:51:56.938Z,75.30
2019-02-21T09:54:27.487Z,76.50
2019-02-21T09:56:58.743Z,78.20
2019-02-21T09:59:29.236Z,77.20
2019-02-21T10:01:59.697Z,77.00
2019-02-21T10:04:32.393Z,76.90
2019-02-21T10:07:02.363Z,76.50
2019-02-21T10:09:32.862Z,75.60
2019-02-21T10:12:03.647Z,74.30
2019-02-21T10:14:34.115Z,75.20
2019-02-21T10:17:04.775Z,75.60
2019-02-21T10:19:35.742Z,75.40
2019-02-21T10:22:06.373Z,74.80
2019-02-21T10:24:36.882Z,74.40
2019-02-21T10:27:07.352Z,74.90
2019-02-21T10:29:37.851Z,74.70
2019-02-21T10:32:08.318Z,74.00
2019-02-21T10:34:43.077Z,73.80
2019-02-21T10:37:10.983Z,74.00
2019-02-21T10:39:41.473Z,72.90
2019-02-21T10:42:11.925Z,72.70
2019-02-21T10:44:42.413Z,72.30
2019-02-21T10:47:14.407Z,71.40
2019-02-21T10:49:44.899Z,72.70
2019-02-21T10:52:15.387Z,70.90
2019-02-21T10:54:45.890Z,70.70
2019-02-21T10:57:16.360Z,71.30
2019-02-21T10:59:47.181Z,70.50
2019-02-21T11:02:17.943Z,71.00
2019-02-21T11:04:54.774Z,69.90
2019-02-21T11:07:20.594Z,72.00
2019-02-21T11:09:51.092Z,72.00
2019-02-21T11:12:21.589Z,70.40
2019-02-21T11:14:52.046Z,71.10
2019-02-21T11:17:25.750Z,72.20
2019-02-21T11:19:55.795Z,71.30
2019-02-21T11:22:26.290Z,70.60
2019-02-21T11:24:56.782Z,71.50
2019-02-21T11:27:28.828Z,69.20
2019-02-21T11:30:01.968Z,70.10
2019-02-21T11:32:32.480Z,68.20
2019-02-21T11:35:06.114Z,68.70
2019-02-21T11:37:42.623Z,66.40
2019-02-21T11:40:11.129Z,64.40
2019-02-21T11:42:41.619Z,63.00
2019-02-21T11:45:15.327Z,59.60
2019-02-21T11:47:45.834Z,58.70
2019-02-21T11:50:18.425Z,57.70
2019-02-21T11:52:48.930Z,58.10
2019-02-21T11:55:47.867Z,59.20
2019-02-21T11:58:18.451Z,59.30
2019-02-21T12:00:48.930Z,58.10
2019-02-21T12:03:21.306Z,57.50
2019-02-21T12:05:51.609Z,58.10
2019-02-21T12:08:22.133Z,56.60
2019-02-21T12:10:52.619Z,56.30
2019-02-21T12:13:23.130Z,55.90
2019-02-21T12:15:53.591Z,55.00
2019-02-21T12:18:24.121Z,51.40
2019-02-21T12:20:54.592Z,51.10
2019-02-21T12:23:25.543Z,49.60
2019-02-21T12:25:56.021Z,48.60
2019-02-21T12:28:26.542Z,48.20
2019-02-21T12:30:57.006Z,49.10
2019-02-21T12:33:27.528Z,48.50
2019-02-21T12:35:59.531Z,48.20
2019-02-21T12:38:30.430Z,50.50
2019-02-21T12:41:02.365Z,50.40
2019-02-21T12:43:32.984Z,49.50
2019-02-21T12:46:03.460Z,50.70
2019-02-21T12:48:33.962Z,51.30
2019-02-21T12:51:05.976Z,52.20
2019-02-21T12:53:36.465Z,51.50
2019-02-21T12:56:07.031Z,50.70
2019-02-21T12:58:37.510Z,50.10
2019-02-21T13:01:08.084Z,49.30
2019-02-21T13:03:38.556Z,48.50
2019-02-21T13:06:09.059Z,48.70
2019-02-21T13:08:41.611Z,48.80
2019-02-21T13:11:12.224Z,49.80
2019-02-21T13:13:42.732Z,50.20
2019-02-21T13:16:13.234Z,50.70
2019-02-21T13:18:43.731Z,50.50
2019-02-21T13:21:14.217Z,50.80
2019-02-21T13:23:44.756Z,49.50
2019-02-21T13:26:15.262Z,49.10
2019-02-21T13:28:45.754Z,48.60
2019-02-21T13:31:16.256Z,47.30
2019-02-21T13:33:46.742Z,47.00
2019-02-21T13:36:17.218Z,46.60
2019-02-21T13:38:47.735Z,46.00
2019-02-21T13:41:18.238Z,45.10
2019-02-21T13:43:48.717Z,45.60
2019-02-21T13:46:19.210Z,46.20
2019-02-21T13:48:51.248Z,47.60
2019-02-21T13:51:23.259Z,47.10
2019-02-21T13:53:54.651Z,47.80
2019-02-21T13:56:25.107Z,48.10
2019-02-21T13:58:55.894Z,49.60
2019-02-21T14:01:26.366Z,50.50
2019-02-21T14:03:56.887Z,50.70
2019-02-21T14:06:27.369Z,51.10
2019-02-21T14:08:57.880Z,51.60
2019-02-21T14:11:30.725Z,51.90
2019-02-21T14:14:00.563Z,52.00
2019-02-21T14:16:31.827Z,54.80
2019-02-21T14:19:02.338Z,53.20
2019-02-21T14:21:32.819Z,52.50
2019-02-21T14:24:03.304Z,52.00
2019-02-21T14:26:33.799Z,52.90
2019-02-21T14:29:05.854Z,52.70
2019-02-21T14:31:36.365Z,53.00
2019-02-21T14:34:06.845Z,53.10
2019-02-21T14:36:37.362Z,54.00
2019-02-21T14:39:10.613Z,54.00
2019-02-21T14:41:43.877Z,54.50
2019-02-21T14:44:13.760Z,54.40
2019-02-21T14:46:44.227Z,55.50
2019-02-21T14:49:14.767Z,55.60
2019-02-21T14:51:45.235Z,56.30
2019-02-21T14:54:17.279Z,56.80
2019-02-21T14:56:47.804Z,57.00
2019-02-21T14:59:19.989Z,57.40
2019-02-21T15:01:50.573Z,57.70
2019-02-21T15:04:21.043Z,58.20
2019-02-21T15:06:51.640Z,58.40
2019-02-21T15:09:22.138Z,58.90
2019-02-21T15:11:52.700Z,58.80
2019-02-21T15:14:23.279Z,58.50
2019-02-21T15:16:55.420Z,59.70
2019-02-21T15:19:26.698Z,60.60
2019-02-21T15:21:57.177Z,60.90
2019-02-21T15:24:29.745Z,62.30
2019-02-21T15:27:08.083Z,62.50
2019-02-21T15:29:32.415Z,63.10
2019-02-21T15:32:10.626Z,63.40
2019-02-21T15:34:35.153Z,64.20
2019-02-21T15:37:05.661Z,64.80
2019-02-21T15:39:36.132Z,64.40
2019-02-21T15:42:06.704Z,65.40
2019-02-21T15:44:37.175Z,66.60
2019-02-21T15:47:07.728Z,67.20
2019-02-21T15:49:38.225Z,67.80
2019-02-21T15:52:08.720Z,68.90
2019-02-21T15:54:39.193Z,69.50
2019-02-21T15:57:09.754Z,71.20
2019-02-21T15:59:40.218Z,68.80
2019-02-21T16:02:10.744Z,69.70
2019-02-21T16:04:41.274Z,69.70
2019-02-21T16:07:11.773Z,70.50
2019-02-21T16:09:42.227Z,73.40
2019-02-21T16:12:13.217Z,73.70
2019-02-21T16:14:43.801Z,73.50
2019-02-21T16:17:14.367Z,74.50
2019-02-21T16:19:44.879Z,73.80
2019-02-21T16:22:15.363Z,74.30
2019-02-21T16:24:48.030Z,74.50
2019-02-21T16:27:18.047Z,75.00
2019-02-21T16:29:48.508Z,75.60
2019-02-21T16:32:19.075Z,75.70
2019-02-21T16:34:49.571Z,88.00
2019-02-21T16:37:20.046Z,82.50
2019-02-21T16:39:50.571Z,78.90
2019-02-21T16:42:21.033Z,79.00
2019-02-21T16:44:51.576Z,79.70
2019-02-21T16:47:23.672Z,81.00
2019-02-21T16:49:55.134Z,81.80
2019-02-21T16:52:25.595Z,82.20
2019-02-21T16:54:56.100Z,82.00
2019-02-21T16:57:26.583Z,82.50
2019-02-21T16:59:57.060Z,82.90
2019-02-21T17:02:27.561Z,83.50
2019-02-21T17:04:58.042Z,84.50
2019-02-21T17:07:28.543Z,84.80
2019-02-21T17:09:59.045Z,85.40
2019-02-21T17:12:29.521Z,85.60
2019-02-21T17:15:00.366Z,85.50
2019-02-21T17:17:30.936Z,85.90
2019-02-21T17:20:03.122Z,85.90
2019-02-21T17:22:35.356Z,86.10
2019-02-21T17:25:09.549Z,86.60
2019-02-21T17:27:40.021Z,87.40
2019-02-21T17:30:14.618Z,88.10
2019-02-21T17:32:46.771Z,88.40
2019-02-21T17:35:17.344Z,89.60
2019-02-21T17:37:47.878Z,89.90
2019-02-21T17:40:24.315Z,90.40
2019-02-21T17:42:54.783Z,90.60
2019-02-21T17:45:25.365Z,91.50
2019-02-21T17:47:55.876Z,91.90
2019-02-21T17:50:26.344Z,92.00
2019-02-21T17:52:56.846Z,92.50
2019-02-21T17:55:27.330Z,93.10
2019-02-21T17:57:57.856Z,93.60
2019-02-21T18:00:32.640Z,94.50
2019-02-21T18:03:03.919Z,94.80
2019-02-21T18:05:34.396Z,95.20
2019-02-21T18:08:06.115Z,95.70
2019-02-21T18:10:36.667Z,95.90
2019-02-21T18:13:07.277Z,95.90
2019-02-21T18:15:37.783Z,96.00
2019-02-21T18:18:08.724Z,96.40
2019-02-21T18:20:40.770Z,96.70
2019-02-21T18:23:12.521Z,97.10
2019-02-21T18:25:47.983Z,97.80
2019-02-21T18:28:19.989Z,98.00
2019-02-21T18:30:50.532Z,98.30
2019-02-21T18:33:22.389Z,98.90
2019-02-21T18:35:52.860Z,99.30
2019-02-21T18:38:24.122Z,99.50
2019-02-21T18:40:54.698Z,99.70
2019-02-21T18:43:25.242Z,99.90
2019-02-21T18:45:57.647Z,99.90
2019-02-21T18:48:28.008Z,99.90
2019-02-21T18:50:58.490Z,99.90
2019-02-21T18:53:28.983Z,99.90
2019-02-21T18:56:01.186Z,99.90
2019-02-21T18:58:32.221Z,99.90
2019-02-21T19:01:02.831Z,99.90
2019-02-21T19:03:33.300Z,99.90
2019-02-21T19:06:04.975Z,99.90
2019-02-21T19:08:35.419Z,99.90
2019-02-21T19:11:06.018Z,99.90
2019-02-21T19:13:36.489Z,99.90
2019-02-21T19:16:08.727Z,99.90
2019-02-21T19:18:41.120Z,99.90
2019-02-21T19:21:13.184Z,99.90
2019-02-21T19:23:43.683Z,99.90
2019-02-21T19:26:14.286Z,99.90
2019-02-21T19:28:44.776Z,99.90
2019-02-21T19:31:15.421Z,99.90
2019-02-21T19:33:46.486Z,99.90
2019-02-21T19:36:17.004Z,99.90
2019-02-21T19:38:47.534Z,99.90
2019-02-21T19:41:18.448Z,99.90
2019-02-21T19:43:48.924Z,99.90
2019-02-21T19:46:19.495Z,99.90
2019-02-21T19:48:49.982Z,99.90
2019-02-21T19:51:20.558Z,99.90
2019-02-21T19:53:51.023Z,99.90
2019-02-21T19:56:21.523Z,99.90
2019-02-21T19:58:53.637Z,99.90
2019-02-21T20:01:24.212Z,99.90
2019-02-21T20:03:54.791Z,99.90
2019-02-21T20:06:25.354Z,99.90
2019-02-21T20:08:55.897Z,99.90
2019-02-21T20:11:26.697Z,99.90
2019-02-21T20:13:57.227Z,99.90
2019-02-21T20:16:27.782Z,99.90
2019-02-21T20:18:58.316Z,99.90
2019-02-21T20:21:28.890Z,99.90
2019-02-21T20:23:59.356Z,99.90
2019-02-21T20:26:29.852Z,99.90
2019-02-21T20:29:00.365Z,99.90
2019-02-21T20:31:30.837Z,99.90
2019-02-21T20:34:01.345Z,99.90
2019-02-21T20:36:31.888Z,99.90
2019-02-21T20:39:02.420Z,99.90
2019-02-21T20:41:32.892Z,99.90
2019-02-21T20:44:03.533Z,99.90
2019-02-21T20:46:34.064Z,99.90
2019-02-21T20:49:04.566Z,99.90
2019-02-21T20:51:35.065Z,99.90
2019-02-21T20:54:05.694Z,99.90
2019-02-21T20:56:36.193Z,99.90
2019-02-21T20:59:06.722Z,99.90
2019-02-21T21:01:37.218Z,99.90
2019-02-21T21:04:07.697Z,99.90
2019-02-21T21:06:38.747Z,99.90
2019-02-21T21:09:09.387Z,99.90
2019-02-21T21:11:39.928Z,99.90
2019-02-21T21:14:10.451Z,99.90
2019-02-21T21:16:40.921Z,99.90
2019-02-21T21:19:11.493Z,99.90
2019-02-21T21:21:41.948Z,99.90
2019-02-21T21:24:13.660Z,99.90
2019-02-21T21:26:44.878Z,99.90
2019-02-21T21:29:16.544Z,99.90
2019-02-21T21:31:46.963Z,99.90
2019-02-21T21:34:17.535Z,99.90
2019-02-21T21:36:48.054Z,99.90
2019-02-21T21:39:18.663Z,99.90
2019-02-21T21:41:49.162Z,99.90
2019-02-21T21:44:19.624Z,99.90
2019-02-21T21:46:50.109Z,99.90
2019-02-21T21:49:20.725Z,99.90
2019-02-21T21:51:51.207Z,99.90
2019-02-21T21:54:21.687Z,99.90
2019-02-21T21:56:52.184Z,99.90
2019-02-21T21:59:23.334Z,99.90
2019-02-21T22:01:53.845Z,99.90
2019-02-21T22:04:24.376Z,99.90
2019-02-21T22:06:54.862Z,99.90
2019-02-21T22:09:25.327Z,99.90
2019-02-21T22:11:55.810Z,99.90
2019-02-21T22:14:26.305Z,99.90
2019-02-21T22:16:56.787Z,99.90
2019-02-21T22:19:27.287Z,99.90
2019-02-21T22:21:57.874Z,99.90
2019-02-21T22:24:28.354Z,99.90
2019-02-21T22:26:59.391Z,99.90
2019-02-21T22:29:29.849Z,99.90
2019-02-21T22:32:00.335Z,99.90
2019-02-21T22:34:31.263Z,99.90
2019-02-21T22:37:01.770Z,99.90
2019-02-21T22:39:32.224Z,99.90
2019-02-21T22:42:02.725Z,99.90
2019-02-21T22:44:33.178Z,99.90
2019-02-21T22:47:03.679Z,99.90
2019-02-21T22:49:35.399Z,99.90
2019-02-21T22:52:05.960Z,99.90
2019-02-21T22:54:37.010Z,99.90
2019-02-21T22:57:07.655Z,99.90
2019-02-21T22:59:40.957Z,99.90
2019-02-21T23:02:11.643Z,99.90
2019-02-21T23:04:46.834Z,99.90
2019-02-21T23:07:22.119Z,99.90
2019-02-21T23:09:52.711Z,99.90
2019-02-21T23:12:23.337Z,99.90
2019-02-21T23:14:53.796Z,99.90
2019-02-21T23:17:25.552Z,99.90
2019-02-21T23:19:56.102Z,99.90
2019-02-21T23:22:26.647Z,99.90
2019-02-21T23:24:57.140Z,99.90
2019-02-21T23:27:27.600Z,99.90
2019-02-21T23:29:58.179Z,99.90
2019-02-21T23:32:30.345Z,99.90
2019-02-21T23:35:00.818Z,99.90
2019-02-21T23:37:31.351Z,99.90
2019-02-21T23:40:01.829Z,99.90
2019-02-21T23:42:32.381Z,99.90
2019-02-21T23:45:02.958Z,99.90
2019-02-21T23:47:33.416Z,99.90
2019-02-21T23:50:04.826Z,99.90
2019-02-21T23:52:35.313Z,99.90
2019-02-21T23:55:06.734Z,99.90
2019-02-21T23:57:40.120Z,99.80
